Time;durP1;ratioP1;P1;durP2;ratioP2;P2;SDS_P1;SDS_P2;PMS_P1;PMS_P2;Temp;Humidity;BMP_temperature;BMP_pressure;BME280_temperature;BME280_humidity;BME280_pressure;Samples;Min_cycle;Max_cycle;Signal;HPM_P1;HPM_P2
2022/03/24 00:01:35;;;;;;;;;;;4.10;99.90;;;;;;5055966;28;19904;-67
2022/03/24 00:04:01;;;;;;;;;;;4.10;99.90;;;;;;5055626;28;19955;-66
2022/03/24 00:06:26;;;;;;;;;;;4.00;99.90;;;;;;5055165;28;19952;-67
2022/03/24 00:08:52;;;;;;;;;;;3.90;99.90;;;;;;5055552;28;20360;-67
2022/03/24 00:11:17;;;;;;;;;;;3.90;99.90;;;;;;5055750;28;20384;-67
2022/03/24 00:13:43;;;;;;;;;;;4.00;99.90;;;;;;5055464;28;19951;-67
2022/03/24 00:16:09;;;;;;;;;;;3.90;99.90;;;;;;5055398;28;19905;-67
2022/03/24 00:18:35;;;;;;;;;;;3.90;99.90;;;;;;5055668;28;19915;-67
2022/03/24 00:21:01;;;;;;;;;;;3.80;99.90;;;;;;5055611;28;19912;-66
2022/03/24 00:23:26;;;;;;;;;;;3.70;99.90;;;;;;5055288;28;20003;-67
2022/03/24 00:25:52;;;;;;;;;;;3.70;99.90;;;;;;5055437;28;19983;-67
2022/03/24 00:28:17;;;;;;;;;;;3.70;99.90;;;;;;5055182;28;19905;-67
2022/03/24 00:30:43;;;;;;;;;;;3.60;99.90;;;;;;5055431;28;19909;-66
2022/03/24 00:33:09;;;;;;;;;;;3.60;99.90;;;;;;5055064;28;19912;-67
2022/03/24 00:35:34;;;;;;;;;;;3.60;99.90;;;;;;5055315;28;19908;-67
2022/03/24 00:38:00;;;;;;;;;;;3.60;99.90;;;;;;5055262;28;19936;-67
2022/03/24 00:40:25;;;;;;;;;;;3.60;99.90;;;;;;5054938;28;19905;-67
2022/03/24 00:42:51;;;;;;;;;;;3.60;99.90;;;;;;5055197;28;20332;-67
2022/03/24 00:45:18;;;;;;;;;;;3.60;99.90;;;;;;5054803;28;19932;-67
2022/03/24 00:47:45;;;;;;;;;;;3.50;99.90;;;;;;5055140;28;19911;-67
2022/03/24 00:50:11;;;;;;;;;;;3.50;99.90;;;;;;5053955;28;19913;-67
2022/03/24 00:52:41;;;;;;;;;;;3.50;99.90;;;;;;5055025;28;20288;-67
2022/03/24 00:55:08;;;;;;;;;;;3.40;99.90;;;;;;5054597;28;19991;-67
2022/03/24 00:57:34;;;;;;;;;;;3.40;99.90;;;;;;5054595;28;19912;-67
2022/03/24 00:59:59;;;;;;;;;;;3.50;99.90;;;;;;5054588;28;19904;-67
2022/03/24 01:02:27;;;;;;;;;;;3.40;99.90;;;;;;5054515;28;20262;-67
2022/03/24 01:04:52;;;;;;;;;;;3.40;99.90;;;;;;5054376;28;19913;-66
2022/03/24 01:07:18;;;;;;;;;;;3.30;99.90;;;;;;5054405;28;19911;-67
2022/03/24 01:09:43;;;;;;;;;;;3.30;99.90;;;;;;5054661;28;19905;-67
2022/03/24 01:12:09;;;;;;;;;;;3.30;99.90;;;;;;5054334;28;20254;-67
2022/03/24 01:14:35;;;;;;;;;;;3.30;99.90;;;;;;5054626;28;19909;-66
2022/03/24 01:17:02;;;;;;;;;;;3.20;99.90;;;;;;5054284;28;19954;-67
2022/03/24 01:19:28;;;;;;;;;;;3.20;99.90;;;;;;5054496;28;19911;-67
2022/03/24 01:21:53;;;;;;;;;;;3.10;99.90;;;;;;5054243;28;19999;-67
2022/03/24 01:24:19;;;;;;;;;;;3.20;99.90;;;;;;5054423;28;19904;-67
2022/03/24 01:26:45;;;;;;;;;;;3.10;99.90;;;;;;5053993;28;19913;-67
2022/03/24 01:29:12;;;;;;;;;;;3.10;99.90;;;;;;5054076;28;19912;-67
2022/03/24 01:31:42;;;;;;;;;;;3.10;99.90;;;;;;5054593;28;19905;-67
2022/03/24 01:34:08;;;;;;;;;;;3.10;99.90;;;;;;5054576;28;19905;-67
2022/03/24 01:36:35;;;;;;;;;;;3.10;99.90;;;;;;5053970;28;19916;-67
2022/03/24 01:39:00;;;;;;;;;;;3.00;99.90;;;;;;5053930;28;19905;-67
2022/03/24 01:41:26;;;;;;;;;;;3.00;99.90;;;;;;5053867;28;19919;-67
2022/03/24 01:43:51;;;;;;;;;;;2.90;99.90;;;;;;5053856;28;19998;-67
2022/03/24 01:46:21;;;;;;;;;;;2.90;99.90;;;;;;5054033;28;19909;-67
2022/03/24 01:48:47;;;;;;;;;;;2.90;99.90;;;;;;5053765;28;19905;-67
2022/03/24 01:51:14;;;;;;;;;;;2.90;99.90;;;;;;5035850;28;19959;-67
2022/03/24 01:53:39;;;;;;;;;;;2.90;99.90;;;;;;5053767;28;19912;-66
2022/03/24 01:56:05;;;;;;;;;;;2.80;99.90;;;;;;5053591;28;19909;-67
2022/03/24 01:58:31;;;;;;;;;;;2.80;99.90;;;;;;5053649;28;20280;-67
2022/03/24 02:01:13;;;;;;;;;;;2.80;99.90;;;;;;5053738;28;19928;-67
2022/03/24 02:03:39;;;;;;;;;;;2.80;99.90;;;;;;5053625;28;19950;-66
2022/03/24 02:06:05;;;;;;;;;;;2.80;99.90;;;;;;5053349;28;19925;-67
2022/03/24 02:08:34;;;;;;;;;;;2.80;99.90;;;;;;5053810;28;20276;-67
2022/03/24 02:10:59;;;;;;;;;;;2.70;99.90;;;;;;5053534;28;20003;-66
2022/03/24 02:13:25;;;;;;;;;;;2.80;99.90;;;;;;5053507;28;19944;-67
2022/03/24 02:15:51;;;;;;;;;;;2.70;99.90;;;;;;5053785;28;19912;-67
2022/03/24 02:18:17;;;;;;;;;;;2.70;99.90;;;;;;5053423;28;19905;-66
2022/03/24 02:20:42;;;;;;;;;;;2.60;99.90;;;;;;5053717;28;19995;-67
2022/03/24 02:23:08;;;;;;;;;;;2.60;99.90;;;;;;5053378;28;19988;-67
2022/03/24 02:25:35;;;;;;;;;;;2.50;99.90;;;;;;5053337;28;19915;-67
2022/03/24 02:28:02;;;;;;;;;;;2.50;99.90;;;;;;5053388;28;19927;-67
2022/03/24 02:30:29;;;;;;;;;;;2.50;99.90;;;;;;5053654;28;19912;-66
2022/03/24 02:32:55;;;;;;;;;;;2.50;99.90;;;;;;5053328;28;19908;-67
2022/03/24 02:35:20;;;;;;;;;;;2.50;99.90;;;;;;5053337;28;20358;-66
2022/03/24 02:37:46;;;;;;;;;;;2.60;99.90;;;;;;5053200;28;19911;-67
2022/03/24 02:40:13;;;;;;;;;;;2.50;99.90;;;;;;5053259;28;19967;-67
2022/03/24 02:42:38;;;;;;;;;;;2.40;99.90;;;;;;5053535;28;19988;-67
2022/03/24 02:45:06;;;;;;;;;;;2.40;99.90;;;;;;5053134;28;20114;-67
2022/03/24 02:47:32;;;;;;;;;;;2.50;99.90;;;;;;5053484;28;19980;-66
2022/03/24 02:49:58;;;;;;;;;;;2.50;99.90;;;;;;5053130;28;19905;-67
2022/03/24 02:52:24;;;;;;;;;;;2.50;99.90;;;;;;5053435;28;19920;-67
2022/03/24 02:54:49;;;;;;;;;;;2.50;99.90;;;;;;5053070;28;19904;-67
2022/03/24 02:57:15;;;;;;;;;;;2.50;99.90;;;;;;5053381;28;20320;-67
2022/03/24 02:59:41;;;;;;;;;;;2.50;99.90;;;;;;5053082;28;19987;-67
2022/03/24 03:02:08;;;;;;;;;;;2.50;99.90;;;;;;5053111;28;19950;-67
2022/03/24 03:04:38;;;;;;;;;;;2.50;99.90;;;;;;5053132;28;19905;-67
2022/03/24 03:07:04;;;;;;;;;;;2.50;99.90;;;;;;5053581;28;20327;-67
2022/03/24 03:09:30;;;;;;;;;;;2.50;99.90;;;;;;5053002;28;19905;-67
2022/03/24 03:11:57;;;;;;;;;;;2.50;99.90;;;;;;5053266;28;19955;-67
2022/03/24 03:14:23;;;;;;;;;;;2.50;99.90;;;;;;5056322;28;19905;-67
2022/03/24 03:16:49;;;;;;;;;;;2.40;99.90;;;;;;5056586;28;19912;-67
2022/03/24 03:19:17;;;;;;;;;;;2.30;99.90;;;;;;5057083;28;19915;-67
2022/03/24 03:21:42;;;;;;;;;;;2.20;99.90;;;;;;5056517;28;19951;-67
2022/03/24 03:24:09;;;;;;;;;;;2.20;99.90;;;;;;5056457;28;19927;-67
2022/03/24 03:26:35;;;;;;;;;;;2.20;99.90;;;;;;5056638;28;19919;-67
2022/03/24 03:29:00;;;;;;;;;;;2.20;99.90;;;;;;5056317;28;19904;-67
2022/03/24 03:31:26;;;;;;;;;;;2.20;99.90;;;;;;5056603;28;19911;-67
2022/03/24 03:33:52;;;;;;;;;;;2.20;99.90;;;;;;5056221;28;19908;-67
2022/03/24 03:36:18;;;;;;;;;;;2.10;99.90;;;;;;5056451;28;19905;-66
2022/03/24 03:38:45;;;;;;;;;;;2.00;99.90;;;;;;5056130;28;19909;-66
2022/03/24 03:41:11;;;;;;;;;;;2.10;99.90;;;;;;5056111;28;20276;-67
2022/03/24 03:43:37;;;;;;;;;;;2.00;99.90;;;;;;5056345;28;19905;-67
2022/03/24 03:46:03;;;;;;;;;;;2.10;99.90;;;;;;5055940;28;20266;-66
2022/03/24 03:48:29;;;;;;;;;;;2.10;99.90;;;;;;5056237;28;19928;-67
2022/03/24 03:50:55;;;;;;;;;;;2.00;99.90;;;;;;5055950;28;20292;-67
2022/03/24 03:53:21;;;;;;;;;;;2.00;99.90;;;;;;5056166;28;19905;-67
2022/03/24 03:55:47;;;;;;;;;;;1.90;99.90;;;;;;5055746;28;19950;-66
2022/03/24 03:58:13;;;;;;;;;;;1.90;99.90;;;;;;5056084;28;19909;-67
2022/03/24 04:00:53;;;;;;;;;;;1.90;99.90;;;;;;5055731;28;19905;-66
2022/03/24 04:03:19;;;;;;;;;;;1.80;99.90;;;;;;5056287;28;19950;-67
2022/03/24 04:05:45;;;;;;;;;;;1.80;99.90;;;;;;5055371;28;20007;-67
2022/03/24 04:08:11;;;;;;;;;;;1.80;99.90;;;;;;5055860;28;19911;-67
2022/03/24 04:10:37;;;;;;;;;;;1.70;99.90;;;;;;5055541;28;19991;-67
2022/03/24 04:13:03;;;;;;;;;;;1.70;99.90;;;;;;5037609;28;20274;-67
2022/03/24 04:15:28;;;;;;;;;;;1.70;99.90;;;;;;5055436;28;19954;-67
2022/03/24 04:17:55;;;;;;;;;;;1.70;99.90;;;;;;5055727;28;19940;-66
2022/03/24 04:20:21;;;;;;;;;;;1.60;99.90;;;;;;5055400;28;19911;-67
2022/03/24 04:22:50;;;;;;;;;;;1.60;99.90;;;;;;5055606;28;20285;-67
2022/03/24 04:25:20;;;;;;;;;;;1.60;99.90;;;;;;5055216;28;19908;-67
2022/03/24 04:27:46;;;;;;;;;;;1.60;99.90;;;;;;5055533;28;19909;-66
2022/03/24 04:30:12;;;;;;;;;;;1.60;99.90;;;;;;5055183;28;19911;-66
2022/03/24 04:32:46;;;;;;;;;;;1.60;99.90;;;;;;5055171;28;19904;-67
2022/03/24 04:35:13;;;;;;;;;;;1.70;99.90;;;;;;5055715;28;19905;-67
2022/03/24 04:37:39;;;;;;;;;;;1.70;99.90;;;;;;5037174;28;19905;-66
2022/03/24 04:40:06;;;;;;;;;;;1.70;99.90;;;;;;5055002;28;20304;-66
2022/03/24 04:42:32;;;;;;;;;;;1.80;99.90;;;;;;5055172;28;19955;-67
2022/03/24 04:44:58;;;;;;;;;;;1.80;99.90;;;;;;5054843;28;19904;-67
2022/03/24 04:47:23;;;;;;;;;;;1.70;99.90;;;;;;5054843;28;19905;-67
2022/03/24 04:49:49;;;;;;;;;;;1.70;99.90;;;;;;5055360;28;20381;-66
2022/03/24 04:52:15;;;;;;;;;;;1.70;99.90;;;;;;5054734;28;19909;-66
2022/03/24 04:54:40;;;;;;;;;;;1.70;99.90;;;;;;5054968;28;19905;-67
2022/03/24 04:57:06;;;;;;;;;;;1.70;99.90;;;;;;5054698;28;19918;-67
2022/03/24 04:59:31;;;;;;;;;;;1.60;99.90;;;;;;5054630;28;19940;-67
2022/03/24 05:01:57;;;;;;;;;;;1.60;99.90;;;;;;5054631;28;19991;-67
2022/03/24 05:04:23;;;;;;;;;;;1.50;99.90;;;;;;5054343;28;19927;-67
2022/03/24 05:06:49;;;;;;;;;;;1.50;99.90;;;;;;5054719;28;19909;-67
2022/03/24 05:09:15;;;;;;;;;;;1.50;99.90;;;;;;5054409;28;19958;-67
2022/03/24 05:11:40;;;;;;;;;;;1.40;99.90;;;;;;5054698;28;19908;-66
2022/03/24 05:14:06;;;;;;;;;;;1.50;99.90;;;;;;5054632;28;19905;-67
2022/03/24 05:16:32;;;;;;;;;;;1.40;99.90;;;;;;5054571;28;19905;-67
2022/03/24 05:18:57;;;;;;;;;;;1.40;99.90;;;;;;5054232;28;19912;-67
2022/03/24 05:21:24;;;;;;;;;;;1.30;99.90;;;;;;5054483;28;19987;-67
2022/03/24 05:23:49;;;;;;;;;;;1.30;99.90;;;;;;5054166;28;19904;-67
2022/03/24 05:26:19;;;;;;;;;;;1.30;99.90;;;;;;5054071;28;19912;-67
2022/03/24 05:28:44;;;;;;;;;;;1.30;99.90;;;;;;5054100;28;19904;-67
2022/03/24 05:31:10;;;;;;;;;;;1.30;99.90;;;;;;5054083;28;20296;-67
2022/03/24 05:33:35;;;;;;;;;;;1.20;99.90;;;;;;5053966;28;19905;-66
2022/03/24 05:36:01;;;;;;;;;;;1.20;99.90;;;;;;5053896;28;19927;-66
2022/03/24 05:38:26;;;;;;;;;;;1.30;99.90;;;;;;5036095;28;20337;-67
2022/03/24 05:40:52;;;;;;;;;;;1.30;99.90;;;;;;5054210;28;19904;-67
2022/03/24 05:43:17;;;;;;;;;;;1.20;99.90;;;;;;5053912;28;19911;-66
2022/03/24 05:45:43;;;;;;;;;;;1.30;99.90;;;;;;5054309;28;19909;-67
2022/03/24 05:48:09;;;;;;;;;;;1.30;99.90;;;;;;5054100;28;19904;-67
2022/03/24 05:50:35;;;;;;;;;;;1.30;99.90;;;;;;5053829;28;19909;-66
2022/03/24 05:53:01;;;;;;;;;;;1.30;99.90;;;;;;5054024;28;19920;-67
2022/03/24 05:55:27;;;;;;;;;;;1.40;99.90;;;;;;5053653;28;19904;-66
2022/03/24 05:57:53;;;;;;;;;;;1.40;99.90;;;;;;5053681;28;19905;-66
2022/03/24 06:00:18;;;;;;;;;;;1.40;99.90;;;;;;5053638;28;19905;-67
2022/03/24 06:02:44;;;;;;;;;;;1.40;99.90;;;;;;5053925;28;20273;-67
2022/03/24 06:05:12;;;;;;;;;;;1.40;99.90;;;;;;5053335;28;19924;-67
2022/03/24 06:07:38;;;;;;;;;;;1.40;99.90;;;;;;5053861;28;20285;-66
2022/03/24 06:10:04;;;;;;;;;;;1.50;99.90;;;;;;5053507;28;20358;-67
2022/03/24 06:12:31;;;;;;;;;;;1.60;99.90;;;;;;5054113;28;19912;-67
2022/03/24 06:14:57;;;;;;;;;;;1.70;99.90;;;;;;5053460;28;19911;-67
2022/03/24 06:17:22;;;;;;;;;;;1.70;99.90;;;;;;5053779;28;19999;-67
2022/03/24 06:19:48;;;;;;;;;;;1.80;99.90;;;;;;5053747;28;19905;-67
2022/03/24 06:22:14;;;;;;;;;;;1.90;99.90;;;;;;5053979;28;20246;-66
2022/03/24 06:24:39;;;;;;;;;;;2.10;99.90;;;;;;5053701;28;19913;-66
2022/03/24 06:27:05;;;;;;;;;;;2.10;99.90;;;;;;5053605;28;19912;-67
2022/03/24 06:29:31;;;;;;;;;;;2.10;99.90;;;;;;5053639;28;19913;-66
2022/03/24 06:31:56;;;;;;;;;;;2.20;99.90;;;;;;5053901;28;20369;-67
2022/03/24 06:34:22;;;;;;;;;;;2.20;99.90;;;;;;5053307;28;20365;-66
2022/03/24 06:36:48;;;;;;;;;;;2.40;99.90;;;;;;5053365;28;19905;-67
2022/03/24 06:39:13;;;;;;;;;;;2.40;99.90;;;;;;5053871;28;20357;-67
2022/03/24 06:41:39;;;;;;;;;;;2.60;99.90;;;;;;5053243;28;20427;-66
2022/03/24 06:44:06;;;;;;;;;;;2.60;99.90;;;;;;5053260;28;19909;-66
2022/03/24 06:46:32;;;;;;;;;;;2.70;99.90;;;;;;5053475;28;19917;-67
2022/03/24 06:48:58;;;;;;;;;;;2.90;99.90;;;;;;5056129;28;19913;-66
2022/03/24 06:51:23;;;;;;;;;;;3.00;99.90;;;;;;5057135;28;19911;-67
2022/03/24 06:53:49;;;;;;;;;;;3.10;99.90;;;;;;5057062;28;19995;-67
2022/03/24 06:56:14;;;;;;;;;;;3.30;99.90;;;;;;5057104;28;20003;-67
2022/03/24 06:58:40;;;;;;;;;;;3.40;99.90;;;;;;5056951;28;19904;-67
2022/03/24 07:01:05;;;;;;;;;;;3.50;99.90;;;;;;5057452;28;19912;-67
2022/03/24 07:03:31;;;;;;;;;;;3.70;99.90;;;;;;5057114;28;20005;-66
2022/03/24 07:05:57;;;;;;;;;;;3.80;99.90;;;;;;5056514;28;19916;-67
2022/03/24 07:08:26;;;;;;;;;;;4.00;99.90;;;;;;5056722;28;19905;-67
2022/03/24 07:10:52;;;;;;;;;;;4.10;99.90;;;;;;5056710;28;19904;-67
2022/03/24 07:13:17;;;;;;;;;;;4.20;99.90;;;;;;5056672;28;19931;-67
2022/03/24 07:15:43;;;;;;;;;;;4.40;99.90;;;;;;5056621;28;19905;-66
2022/03/24 07:18:09;;;;;;;;;;;4.50;99.90;;;;;;5056828;28;20269;-66
2022/03/24 07:20:35;;;;;;;;;;;4.60;99.90;;;;;;5056491;28;20081;-66
2022/03/24 07:23:03;;;;;;;;;;;4.80;99.90;;;;;;5057044;28;19905;-67
2022/03/24 07:25:29;;;;;;;;;;;4.90;99.90;;;;;;5056342;28;19999;-67
2022/03/24 07:27:54;;;;;;;;;;;5.00;99.90;;;;;;5056399;28;20014;-67
2022/03/24 07:30:20;;;;;;;;;;;5.20;99.90;;;;;;5056384;28;19911;-67
2022/03/24 07:32:46;;;;;;;;;;;5.30;99.90;;;;;;5056527;28;20273;-67
2022/03/24 07:35:14;;;;;;;;;;;5.50;99.90;;;;;;5056236;28;19911;-67
2022/03/24 07:37:40;;;;;;;;;;;5.60;99.90;;;;;;5056429;28;19905;-67
2022/03/24 07:40:07;;;;;;;;;;;5.80;99.90;;;;;;5056148;28;20331;-67
2022/03/24 07:42:33;;;;;;;;;;;6.10;99.90;;;;;;5056134;28;19927;-67
2022/03/24 07:44:58;;;;;;;;;;;6.30;99.90;;;;;;5055983;28;20366;-67
2022/03/24 07:47:24;;;;;;;;;;;6.50;99.90;;;;;;5056194;28;19905;-67
2022/03/24 07:49:50;;;;;;;;;;;6.80;99.90;;;;;;5055253;28;20385;-67
2022/03/24 07:52:15;;;;;;;;;;;7.10;99.90;;;;;;5056128;28;19909;-69
2022/03/24 07:54:57;;;;;;;;;;;7.40;99.90;;;;;;5055774;28;19955;-68
2022/03/24 07:57:24;;;;;;;;;;;7.90;99.90;;;;;;5055809;28;19905;-71
2022/03/24 07:59:49;;;;;;;;;;;11.50;99.90;;;;;;5055013;28;20003;-67
2022/03/24 08:02:17;;;;;;;;;;;16.10;99.90;;;;;;5056242;28;19966;-67
2022/03/24 08:04:42;;;;;;;;;;;17.30;92.70;;;;;;5055076;28;20285;-70
2022/03/24 08:07:08;;;;;;;;;;;19.20;90.80;;;;;;5054964;28;19913;-70
2022/03/24 08:09:33;;;;;;;;;;;21.20;81.90;;;;;;5055341;28;19916;-70
2022/03/24 08:11:59;;;;;;;;;;;22.80;74.10;;;;;;5056117;28;19904;-68
2022/03/24 08:14:25;;;;;;;;;;;24.20;68.40;;;;;;5054945;28;20436;-68
2022/03/24 08:16:51;;;;;;;;;;;25.20;62.80;;;;;;5055458;28;19983;-70
2022/03/24 08:19:16;;;;;;;;;;;26.00;60.00;;;;;;5055091;28;19970;-69
2022/03/24 08:21:42;;;;;;;;;;;26.70;57.40;;;;;;5055351;28;19905;-71
2022/03/24 08:24:08;;;;;;;;;;;27.20;55.20;;;;;;5055073;28;19962;-69
2022/03/24 08:26:35;;;;;;;;;;;27.40;53.30;;;;;;5055199;28;19909;-70
2022/03/24 08:29:00;;;;;;;;;;;28.00;52.10;;;;;;5055860;28;20357;-70
2022/03/24 08:31:26;;;;;;;;;;;28.40;51.40;;;;;;5055193;28;19950;-72
2022/03/24 08:33:52;;;;;;;;;;;29.10;50.60;;;;;;5055060;28;20384;-69
2022/03/24 08:36:17;;;;;;;;;;;29.70;49.40;;;;;;5054826;28;20003;-70
2022/03/24 08:38:43;;;;;;;;;;;30.00;48.30;;;;;;5055052;28;19970;-70
2022/03/24 08:41:08;;;;;;;;;;;30.40;47.70;;;;;;5054243;28;19912;-71
2022/03/24 08:43:34;;;;;;;23.65;21.25;;;30.70;47.20;;;;;;5054241;28;19909;-73
2022/03/24 08:45:59;;;;;;;24.42;17.00;;;31.20;46.90;;;;;;5054956;28;19917;-72
2022/03/24 08:48:25;;;;;;;17.08;15.38;;;31.40;45.70;;;;;;5054361;28;20029;-70
2022/03/24 08:50:51;;;;;;;19.27;14.55;;;31.90;45.60;;;;;;5054345;28;20066;-69
2022/03/24 08:53:17;;;;;;;19.40;15.63;;;32.20;44.60;;;;;;5054325;28;20029;-69
2022/03/24 08:55:43;;;;;;;16.55;14.80;;;32.50;43.70;;;;;;5054295;28;20021;-69
2022/03/24 08:58:10;;;;;;;18.50;14.68;;;32.80;43.60;;;;;;5053686;28;20086;-70
2022/03/24 09:00:35;;;;;;;16.77;15.00;;;32.70;42.90;;;;;;5054170;28;20387;-71
2022/03/24 09:03:01;;;;;;;17.00;15.13;;;33.10;42.60;;;;;;5054142;28;20033;-70
2022/03/24 09:05:27;;;;;;;20.67;14.48;;;33.30;42.50;;;;;;5051408;28;20044;-70
2022/03/24 09:07:52;;;;;;;17.85;14.02;;;33.70;42.10;;;;;;5074279;28;20380;-71
2022/03/24 09:10:18;;;;;;;15.93;14.05;;;33.90;41.80;;;;;;5073582;28;20044;-71
2022/03/24 09:12:47;;;;;;;19.10;15.20;;;34.30;40.90;;;;;;5073837;28;20021;-69
2022/03/24 09:15:17;;;;;;;17.40;15.23;;;34.50;40.20;;;;;;5073495;28;20027;-70
2022/03/24 09:17:43;;;;;;;17.77;14.73;;;34.90;39.40;;;;;;5073767;28;20485;-67
2022/03/24 09:20:12;;;;;;;17.42;15.50;;;35.20;39.50;;;;;;5073233;28;20061;-69
2022/03/24 09:22:39;;;;;;;18.38;16.40;;;35.00;39.10;;;;;;5071778;28;20462;-74
2022/03/24 09:25:05;;;;;;;18.15;15.73;;;35.00;38.70;;;;;;5073034;28;20028;-73
2022/03/24 09:27:32;;;;;;;25.98;16.27;;;35.10;38.90;;;;;;5072794;28;20029;-72
2022/03/24 09:29:57;;;;;;;18.90;15.70;;;35.40;38.70;;;;;;5071816;28;20017;-71
2022/03/24 09:32:24;;;;;;;18.45;15.98;;;35.70;38.10;;;;;;5073319;28;20020;-71
2022/03/24 09:34:49;;;;;;;18.05;14.65;;;36.40;37.20;;;;;;5073379;28;20480;-71
2022/03/24 09:37:19;;;;;;;18.15;15.25;;;36.80;36.70;;;;;;5072950;28;20032;-70
2022/03/24 09:39:45;;;;;;;16.40;14.70;;;37.20;36.10;;;;;;5072823;28;20082;-71
2022/03/24 09:42:12;;;;;;;25.75;16.27;;;37.30;36.40;;;;;;5071499;28;20039;-71
2022/03/24 09:44:40;;;;;;;17.48;15.57;;;37.10;36.30;;;;;;5073744;28;20024;-70
2022/03/24 09:47:08;;;;;;;17.42;15.30;;;37.10;36.10;;;;;;5073230;28;20028;-69
2022/03/24 09:49:35;;;;;;;22.15;15.40;;;37.40;36.30;;;;;;5073338;28;20473;-72
2022/03/24 09:52:00;;;;;;;19.83;16.00;;;37.50;36.20;;;;;;5073006;28;20400;-68
2022/03/24 09:54:26;;;;;;;19.52;16.38;;;37.70;35.60;;;;;;5073124;28;20119;-72
2022/03/24 09:56:52;;;;;;;18.13;16.23;;;38.10;34.90;;;;;;5073264;28;20035;-70
2022/03/24 09:59:18;;;;;;;18.25;16.17;;;37.80;34.90;;;;;;5072899;28;20024;-71
2022/03/24 10:01:43;;;;;;;19.40;17.42;;;38.10;34.90;;;;;;5072939;28;20031;-71
2022/03/24 10:04:11;;;;;;;19.92;16.70;;;38.40;34.60;;;;;;5072246;28;20500;-70
2022/03/24 10:06:56;;;;;;;19.13;17.05;;;38.80;34.30;;;;;;5053296;28;20501;-68
2022/03/24 10:09:47;;;;;;;19.80;17.75;;;38.40;34.30;;;;;;5053723;28;20021;-69
2022/03/24 10:12:34;;;;;;;19.35;16.90;;;38.20;34.10;;;;;;5053426;28;20056;-70
2022/03/24 10:15:11;;;;;;;19.70;17.02;;;38.30;33.90;;;;;;5052553;28;20025;-73
2022/03/24 10:17:38;;;;;;;21.33;17.73;;;38.40;33.80;;;;;;5053070;28;20025;-67
2022/03/24 10:20:05;;;;;;;21.45;19.02;;;38.50;33.90;;;;;;5053667;28;20025;-67
2022/03/24 10:22:35;;;;;;;22.27;18.58;;;38.40;33.50;;;;;;5055388;28;20075;-67
2022/03/24 10:25:17;;;;;;;21.25;18.95;;;38.10;33.50;;;;;;5056061;28;20028;-67
2022/03/24 10:27:43;;;;;;;22.05;19.77;;;38.00;33.00;;;;;;5057178;28;20033;-67
2022/03/24 10:30:11;;;;;;;26.92;19.35;;;37.90;32.70;;;;;;5057297;28;20480;-67
2022/03/24 10:32:36;;;;;;;20.93;18.73;;;38.20;32.50;;;;;;5057013;28;20021;-69
2022/03/24 10:35:12;;;;;;;20.75;17.30;;;38.20;32.20;;;;;;5054205;28;20359;-69
2022/03/24 10:37:38;;;;;;;20.17;17.75;;;38.50;32.40;;;;;;5038342;28;20025;-71
2022/03/24 10:40:09;;;;;;;39.75;21.33;;;39.10;32.50;;;;;;5057102;28;20037;-68
2022/03/24 10:42:40;;;;;;;27.42;17.92;;;38.70;31.50;;;;;;5056691;28;20020;-71
2022/03/24 10:45:06;;;;;;;20.63;18.48;;;38.60;31.80;;;;;;5056225;28;20031;-72
2022/03/24 10:47:39;;;;;;;21.27;18.90;;;38.90;31.20;;;;;;5056977;28;20095;-69
2022/03/24 10:50:20;;;;;;;22.98;20.67;;;38.90;31.40;;;;;;5057194;28;20036;-70
2022/03/24 10:52:46;;;;;;;21.83;19.08;;;38.80;31.10;;;;;;5056562;28;20019;-68
2022/03/24 10:55:16;;;;;;;23.58;20.77;;;38.90;31.00;;;;;;5056072;28;20082;-71
2022/03/24 10:57:42;;;;;;;20.90;18.83;;;39.00;31.50;;;;;;5056066;28;20017;-68
2022/03/24 11:00:09;;;;;;;23.67;21.33;;;38.90;31.00;;;;;;5055853;28;20108;-68
2022/03/24 11:02:36;;;;;;;59.33;25.65;;;38.50;31.40;;;;;;5056994;28;20062;-70
2022/03/24 11:05:12;;;;;;;22.80;20.40;;;38.10;30.60;;;;;;5055770;28;20069;-70
2022/03/24 11:07:38;;;;;;;22.63;20.23;;;37.90;31.30;;;;;;5037959;28;20029;-69
2022/03/24 11:10:12;;;;;;;29.70;21.05;;;37.70;31.40;;;;;;5055596;28;20504;-70
2022/03/24 11:12:39;;;;;;;24.00;21.40;;;37.90;31.60;;;;;;5036375;28;20099;-70
2022/03/24 11:15:07;;;;;;;22.50;19.70;;;38.00;31.20;;;;;;5050726;28;20533;-71
2022/03/24 11:17:36;;;;;;;22.42;20.10;;;37.90;31.40;;;;;;5055631;28;20446;-68
2022/03/24 11:20:04;;;;;;;21.88;19.48;;;38.00;32.10;;;;;;5055585;28;20033;-71
2022/03/24 11:22:52;;;;;;;22.33;19.85;;;38.00;32.40;;;;;;5055439;28;20500;-69
2022/03/24 11:25:18;;;;;;;22.37;20.00;;;37.80;31.60;;;;;;5055198;28;20078;-70
2022/03/24 11:27:45;;;;;;;23.48;19.13;;;37.80;32.00;;;;;;5054165;28;20025;-71
2022/03/24 11:30:12;;;;;;;22.35;19.58;;;38.00;31.80;;;;;;5054700;28;20053;-70
2022/03/24 11:32:41;;;;;;;23.77;20.77;;;37.70;32.20;;;;;;5055495;28;20417;-70
2022/03/24 11:35:08;;;;;;;37.00;22.30;;;37.40;32.00;;;;;;5054895;28;20028;-70
2022/03/24 11:37:34;;;;;;;;;;;37.20;31.90;;;;;;5056173;28;19912;-71
2022/03/24 11:40:02;;;;;;;;;;;36.70;32.10;;;;;;5056141;28;19909;-70
2022/03/24 11:42:28;;;;;;;;;;;36.20;32.60;;;;;;5055668;28;19909;-70
2022/03/24 11:44:58;;;;;;;;;;;34.30;34.70;;;;;;5055476;28;20282;-68
2022/03/24 11:47:25;;;;;;;;;;;29.90;37.10;;;;;;5055938;28;19917;-68
2022/03/24 11:50:09;;;;;;;;;;;26.90;39.40;;;;;;5055547;28;19909;-68
2022/03/24 11:52:35;;;;;;;;;;;25.40;41.80;;;;;;5038163;28;19913;-68
2022/03/24 11:55:00;;;;;;;;;;;24.30;43.80;;;;;;5055910;28;19909;-67
2022/03/24 11:57:33;;;;;;;;;;;23.70;43.80;;;;;;5038128;28;19920;-69
2022/03/24 12:00:14;;;;;;;;;;;22.90;44.80;;;;;;5056041;28;20068;-69
2022/03/24 12:02:39;;;;;;;;;;;22.30;45.00;;;;;;5056333;28;19915;-69
2022/03/24 12:05:05;;;;;;;;;;;22.10;45.80;;;;;;5055470;28;19924;-67
2022/03/24 12:07:31;;;;;;;;;;;21.80;46.20;;;;;;5055687;28;19948;-68
2022/03/24 12:09:58;;;;;;;;;;;21.70;46.20;;;;;;5055447;28;20278;-69
2022/03/24 12:12:24;;;;;;;;;;;21.80;46.70;;;;;;5055557;28;19955;-69
2022/03/24 12:14:53;;;;;;;;;;;21.60;45.70;;;;;;5056110;28;19960;-69
2022/03/24 12:17:25;;;;;;;;;;;21.50;47.60;;;;;;5055762;28;19908;-68
2022/03/24 12:19:51;;;;;;;;;;;21.50;46.70;;;;;;5055900;28;19916;-68
2022/03/24 12:22:26;;;;;;;;;;;21.40;46.50;;;;;;5054864;28;19913;-69
2022/03/24 12:24:52;;;;;;;;;;;21.40;47.10;;;;;;5055328;28;19909;-68
2022/03/24 12:27:18;;;;;;;;;;;21.30;47.00;;;;;;5055292;28;19917;-69
2022/03/24 12:30:03;;;;;;;;;;;21.30;46.90;;;;;;5055066;28;20262;-68
2022/03/24 12:32:29;;;;;;;;;;;21.30;46.10;;;;;;5035685;28;19909;-68
2022/03/24 12:34:54;;;;;;;;;;;21.30;45.90;;;;;;5039083;28;19919;-67
2022/03/24 12:37:23;;;;;;;;;;;21.40;46.40;;;;;;5055141;28;19970;-68
2022/03/24 12:40:09;;;;;;;;;;;21.30;44.80;;;;;;5055390;28;19909;-69
2022/03/24 12:42:53;;;;;;;;;;;21.20;44.90;;;;;;5055401;28;19909;-68
2022/03/24 12:45:22;;;;;;;;;;;21.30;45.90;;;;;;5053966;28;20385;-69
2022/03/24 12:47:47;;;;;;;;;;;21.30;45.10;;;;;;5055325;28;19908;-68
2022/03/24 12:50:16;;;;;;;;;;;21.20;45.30;;;;;;5054596;28;20003;-69
2022/03/24 12:52:47;;;;;;;;;;;21.10;45.00;;;;;;5036689;28;20373;-69
2022/03/24 12:55:20;;;;;;;;;;;21.00;45.30;;;;;;5054114;28;20390;-70
2022/03/24 12:57:55;;;;;;;;;;;21.10;45.30;;;;;;5047418;28;19917;-69
2022/03/24 13:00:23;;;;;;;;;;;21.00;45.10;;;;;;5054945;28;19909;-69
2022/03/24 13:02:49;;;;;;;;;;;21.00;44.10;;;;;;5036685;28;20392;-70
2022/03/24 13:05:20;;;;;;;;;;;21.00;44.00;;;;;;5054309;28;20025;-69
2022/03/24 13:07:50;;;;;;;;;;;21.10;43.20;;;;;;5055177;28;19913;-66
2022/03/24 13:10:15;;;;;;;;;;;21.10;42.80;;;;;;5053900;28;19916;-69
2022/03/24 13:12:42;;;;;;;;;;;21.10;43.20;;;;;;5054168;28;20429;-71
2022/03/24 13:15:16;;;;;;;;;;;21.10;43.20;;;;;;5054270;28;20012;-69
2022/03/24 13:17:42;;;;;;;;;;;21.10;44.00;;;;;;5054894;28;19909;-70
2022/03/24 13:20:08;;;;;;;;;;;21.10;44.70;;;;;;5054606;28;20361;-70
2022/03/24 13:22:34;;;;;;;;;;;21.10;45.70;;;;;;5054235;28;19909;-73
2022/03/24 13:25:07;;;;;;;;;;;21.20;45.90;;;;;;5054846;28;19916;-70
2022/03/24 13:27:33;;;;;;;;;;;21.20;44.90;;;;;;5054460;28;20389;-68
2022/03/24 13:30:03;;;;;;;;;;;21.10;43.60;;;;;;5053822;28;19921;-67
2022/03/24 13:32:28;;;;;;;;;;;21.10;42.90;;;;;;5054390;28;20380;-69
2022/03/24 13:34:57;;;;;;;;;;;21.10;44.40;;;;;;5054330;28;19909;-70
2022/03/24 13:37:23;;;;;;;;;;;21.00;42.60;;;;;;5053409;28;19913;-69
2022/03/24 13:39:54;;;;;;;;;;;21.00;43.80;;;;;;5053985;28;20448;-67
2022/03/24 13:42:21;;;;;;;;;;;20.90;46.60;;;;;;5054228;28;19915;-70
2022/03/24 13:44:47;;;;;;;;;;;20.90;45.20;;;;;;5053942;28;19909;-71
2022/03/24 13:47:13;;;;;;;;;;;21.00;44.50;;;;;;5035958;28;19913;-68
2022/03/24 13:49:40;;;;;;;19.85;13.88;;;20.90;44.10;;;;;;5053141;28;19966;-69
2022/03/24 13:52:07;;;;;;;20.00;13.90;;;21.00;45.50;;;;;;5053373;28;20094;-68
2022/03/24 13:54:34;;;;;;;18.58;12.07;;;20.90;43.30;;;;;;5053265;28;20017;-67
2022/03/24 13:57:00;;;;;;;18.90;12.35;;;20.80;43.20;;;;;;5052304;28;20036;-67